createdAt,value
2023-02-03T00:01:40.973Z,96.46
2023-02-03T00:06:44.240Z,97.23
2023-02-03T00:11:48.167Z,97.58
2023-02-03T00:16:50.907Z,98.46
2023-02-03T00:21:53.392Z,98.98
2023-02-03T00:26:57.187Z,99.24
2023-02-03T00:31:59.820Z,100.00
2023-02-03T00:37:02.904Z,100.00
2023-02-03T00:42:07.612Z,100.00
2023-02-03T00:47:10.200Z,100.00
2023-02-03T00:52:12.720Z,100.00
2023-02-03T00:57:16.552Z,100.00
2023-02-03T01:02:19.139Z,100.00
2023-02-03T01:07:21.629Z,100.00
2023-02-03T01:12:25.409Z,100.00
2023-02-03T01:17:27.942Z,100.00
2023-02-03T01:22:31.176Z,100.00
2023-02-03T01:27:35.052Z,100.00
2023-02-03T01:32:37.523Z,100.00
2023-02-03T01:37:40.013Z,100.00
2023-02-03T01:42:43.854Z,100.00
2023-02-03T01:47:51.192Z,100.00
2023-02-03T01:52:58.475Z,100.00
2023-02-03T01:58:07.613Z,100.00
2023-02-03T02:03:10.842Z,100.00
2023-02-03T02:08:14.904Z,100.00
2023-02-03T02:13:20.496Z,100.00
2023-02-03T02:18:37.571Z,100.00
2023-02-03T02:24:08.978Z,100.00
2023-02-03T02:29:51.048Z,100.00
2023-02-03T02:35:02.794Z,100.00
2023-02-03T02:40:16.754Z,100.00
2023-02-03T02:45:26.363Z,100.00
2023-02-03T02:50:35.701Z,100.00
2023-02-03T02:55:41.186Z,100.00
2023-02-03T03:00:44.859Z,100.00
2023-02-03T03:05:53.413Z,100.00
2023-02-03T03:10:57.967Z,100.00
2023-02-03T03:16:02.546Z,100.00
2023-02-03T03:21:09.035Z,100.00
2023-02-03T03:26:17.399Z,100.00
2023-02-03T03:31:20.989Z,100.00
2023-02-03T03:36:30.198Z,100.00
2023-02-03T03:41:42.284Z,100.00
2023-02-03T03:46:51.139Z,100.00
2023-02-03T03:51:59.894Z,100.00
2023-02-03T03:57:07.695Z,100.00
2023-02-03T04:02:10.940Z,100.00
2023-02-03T04:07:15.616Z,100.00
2023-02-03T04:12:24.339Z,100.00
2023-02-03T04:17:26.864Z,100.00
2023-02-03T04:22:30.666Z,100.00
2023-02-03T04:27:33.514Z,100.00
2023-02-03T04:32:36.419Z,100.00
2023-02-03T04:37:40.319Z,100.00
2023-02-03T04:42:42.885Z,100.00
2023-02-03T04:47:45.379Z,100.00
2023-02-03T04:52:49.217Z,100.00
2023-02-03T04:57:56.316Z,100.00
2023-02-03T05:02:58.837Z,100.00
2023-02-03T05:08:02.749Z,100.00
2023-02-03T05:13:05.249Z,100.00
2023-02-03T05:18:08.016Z,100.00
2023-02-03T05:23:11.825Z,100.00
2023-02-03T05:28:14.457Z,100.00
2023-02-03T05:33:17.405Z,100.00
2023-02-03T05:38:21.320Z,100.00
2023-02-03T05:43:23.833Z,100.00
2023-02-03T05:48:26.333Z,100.00
2023-02-03T05:53:30.271Z,100.00
2023-02-03T05:58:32.833Z,100.00
2023-02-03T06:03:35.397Z,100.00
2023-02-03T06:08:39.318Z,100.00
2023-02-03T06:13:41.802Z,100.00
2023-02-03T06:18:44.285Z,100.00
2023-02-03T06:23:48.297Z,100.00
2023-02-03T06:28:50.814Z,100.00
2023-02-03T06:33:53.357Z,100.00
2023-02-03T06:38:58.288Z,100.00
2023-02-03T06:44:00.789Z,100.00
2023-02-03T06:49:03.282Z,100.00
2023-02-03T06:54:07.957Z,100.00
2023-02-03T06:59:10.966Z,100.00
2023-02-03T07:04:13.452Z,100.00
2023-02-03T07:09:17.325Z,100.00
2023-02-03T07:14:20.018Z,100.00
2023-02-03T07:19:22.549Z,100.00
2023-02-03T07:24:26.399Z,100.00
2023-02-03T07:29:29.236Z,100.00
2023-02-03T07:34:31.761Z,100.00
2023-02-03T07:39:35.668Z,100.00
2023-02-03T07:44:38.197Z,100.00
2023-02-03T07:49:40.730Z,100.00
2023-02-03T07:54:44.583Z,100.00
2023-02-03T07:59:47.076Z,100.00
2023-02-03T08:04:49.665Z,100.00
2023-02-03T08:09:53.529Z,100.00
2023-02-03T08:14:56.103Z,100.00
2023-02-03T08:19:58.581Z,100.00
2023-02-03T08:25:02.424Z,100.00
2023-02-03T08:30:06.193Z,100.00
2023-02-03T08:35:09.714Z,100.00
2023-02-03T08:40:14.047Z,100.00
2023-02-03T08:45:16.539Z,100.00
2023-02-03T08:50:19.736Z,100.00
2023-02-03T08:55:24.544Z,100.00
2023-02-03T09:00:28.004Z,100.00
2023-02-03T09:05:31.304Z,100.00
2023-02-03T09:10:35.131Z,100.00
2023-02-03T09:15:38.065Z,100.00
2023-02-03T09:20:40.581Z,100.00
2023-02-03T09:25:47.237Z,100.00
2023-02-03T09:30:51.110Z,100.00
2023-02-03T09:35:53.969Z,99.16
2023-02-03T09:41:11.305Z,98.95
2023-02-03T09:46:20.999Z,97.64
2023-02-03T09:51:26.112Z,95.96
2023-02-03T09:56:33.297Z,93.79
2023-02-03T10:01:42.660Z,90.76
2023-02-03T10:06:47.277Z,91.51
2023-02-03T10:12:09.511Z,91.22
2023-02-03T10:17:30.325Z,91.08
2023-02-03T10:22:38.896Z,90.27
2023-02-03T10:27:44.807Z,89.57
2023-02-03T10:32:50.257Z,90.41
2023-02-03T10:37:58.423Z,89.17
2023-02-03T10:43:19.957Z,89.46
2023-02-03T10:48:23.515Z,87.80
2023-02-03T10:53:28.068Z,89.25
2023-02-03T10:58:34.054Z,89.61
2023-02-03T11:03:36.886Z,88.58
2023-02-03T11:08:41.450Z,88.64
2023-02-03T11:13:45.289Z,88.07
2023-02-03T11:18:54.135Z,87.96
2023-02-03T11:24:03.033Z,88.01
2023-02-03T11:29:08.355Z,87.71
2023-02-03T11:34:19.570Z,88.22
2023-02-03T11:39:27.133Z,89.42
2023-02-03T11:44:33.531Z,88.09
2023-02-03T11:50:11.506Z,86.79
2023-02-03T11:55:26.814Z,88.08
2023-02-03T12:00:40.038Z,89.40
2023-02-03T12:06:01.640Z,88.43
2023-02-03T12:11:12.670Z,88.90
2023-02-03T12:16:31.767Z,88.00
2023-02-03T12:21:44.229Z,88.34
2023-02-03T12:26:53.123Z,86.75
2023-02-03T12:32:06.469Z,87.12
2023-02-03T12:37:15.227Z,86.32
2023-02-03T12:42:22.168Z,85.40
2023-02-03T12:47:33.092Z,84.69
2023-02-03T12:52:40.440Z,86.35
2023-02-03T12:57:49.171Z,89.99
2023-02-03T13:03:07.988Z,93.10
2023-02-03T13:08:17.748Z,95.72
2023-02-03T13:13:30.089Z,97.19
2023-02-03T13:18:38.062Z,98.64
2023-02-03T13:23:44.631Z,98.79
2023-02-03T13:29:04.028Z,99.76
2023-02-03T13:34:53.665Z,98.62
2023-02-03T13:40:17.939Z,98.57
2023-02-03T13:45:30.641Z,99.39
2023-02-03T13:50:36.458Z,99.40
2023-02-03T13:55:43.036Z,99.59
2023-02-03T14:01:31.684Z,99.43
2023-02-03T14:07:13.322Z,99.84
2023-02-03T14:12:34.099Z,98.69
2023-02-03T14:18:06.982Z,99.59
2023-02-03T14:23:17.603Z,100.00
2023-02-03T14:28:41.927Z,100.00
2023-02-03T14:33:55.306Z,100.00
2023-02-03T14:39:03.395Z,100.00
2023-02-03T14:44:18.749Z,100.00
2023-02-03T14:49:36.941Z,100.00
2023-02-03T14:54:56.829Z,100.00
2023-02-03T15:00:05.912Z,100.00
2023-02-03T15:05:36.881Z,100.00
2023-02-03T15:10:44.882Z,100.00
2023-02-03T15:15:56.146Z,100.00
2023-02-03T15:21:03.276Z,100.00
2023-02-03T15:26:20.644Z,100.00
2023-02-03T15:31:32.260Z,100.00
2023-02-03T15:36:43.963Z,100.00
2023-02-03T15:41:50.776Z,100.00
2023-02-03T15:47:01.825Z,100.00
2023-02-03T15:52:15.025Z,100.00
2023-02-03T15:57:23.250Z,99.72
2023-02-03T16:02:35.021Z,98.42
2023-02-03T16:07:43.107Z,97.71
2023-02-03T16:12:46.264Z,97.86
2023-02-03T16:17:57.473Z,96.50
2023-02-03T16:23:07.627Z,95.94
2023-02-03T16:28:35.902Z,95.87
2023-02-03T16:33:58.323Z,95.69
2023-02-03T16:39:22.635Z,96.23
2023-02-03T16:44:43.029Z,96.93
2023-02-03T16:50:06.036Z,97.21
2023-02-03T16:55:10.862Z,98.43
2023-02-03T17:00:15.368Z,99.51
2023-02-03T17:05:22.873Z,100.00
2023-02-03T17:10:27.934Z,100.00
2023-02-03T17:15:31.495Z,100.00
2023-02-03T17:20:37.037Z,100.00
2023-02-03T17:25:41.292Z,100.00
2023-02-03T17:30:46.099Z,100.00
2023-02-03T17:36:01.630Z,100.00
2023-02-03T17:57:16.154Z,100.00
2023-02-03T18:02:19.054Z,100.00
2023-02-03T18:07:25.979Z,100.00
2023-02-03T18:12:30.393Z,100.00
2023-02-03T18:17:33.921Z,100.00
2023-02-03T18:22:39.594Z,100.00
2023-02-03T18:27:49.245Z,100.00
2023-02-03T18:32:54.792Z,100.00
2023-02-03T18:38:02.932Z,100.00
2023-02-03T18:43:10.466Z,100.00
2023-02-03T18:48:13.450Z,98.50
2023-02-03T18:53:21.501Z,95.15
2023-02-03T18:58:25.522Z,93.66
2023-02-03T19:03:28.535Z,94.17
2023-02-03T19:08:34.626Z,94.27
2023-02-03T19:13:38.905Z,93.08
2023-02-03T19:18:44.349Z,92.17
2023-02-03T19:23:49.202Z,92.46
2023-02-03T19:29:11.030Z,92.27
2023-02-03T19:34:15.958Z,93.22
2023-02-03T19:39:21.863Z,93.71
2023-02-03T19:44:24.433Z,94.64
2023-02-03T19:49:28.605Z,94.54
2023-02-03T19:54:33.145Z,94.96
2023-02-03T19:59:35.891Z,95.67
2023-02-03T20:04:55.024Z,96.46
2023-02-03T20:10:19.823Z,98.51
2023-02-03T20:15:31.631Z,99.33
2023-02-03T20:26:14.025Z,100.00
2023-02-03T20:31:24.627Z,100.00
2023-02-03T20:36:33.331Z,100.00
2023-02-03T20:41:43.155Z,100.00
2023-02-03T20:47:00.729Z,100.00
2023-02-03T21:08:39.638Z,97.55
2023-02-03T21:14:13.282Z,96.88
2023-02-03T21:19:35.119Z,97.31
2023-02-03T21:36:08.029Z,96.11
2023-02-03T21:52:32.782Z,94.09
2023-02-03T21:57:50.900Z,93.48
2023-02-03T22:08:25.754Z,94.41
2023-02-03T22:13:45.434Z,92.96
2023-02-03T22:18:50.886Z,93.42
2023-02-03T22:24:06.352Z,93.69
2023-02-03T22:29:11.196Z,91.91
2023-02-03T22:34:41.648Z,92.54
2023-02-03T22:40:04.726Z,91.80
2023-02-03T22:45:13.161Z,91.55
2023-02-03T22:50:35.021Z,91.79
2023-02-03T23:01:04.306Z,91.67
2023-02-03T23:11:30.164Z,90.50
2023-02-03T23:22:16.732Z,91.91
2023-02-03T23:27:19.933Z,91.45
2023-02-03T23:32:30.223Z,91.46
2023-02-03T23:37:35.270Z,91.50
2023-02-03T23:42:38.494Z,91.78
2023-02-03T23:48:17.363Z,91.22
2023-02-03T23:53:19.845Z,92.15
2023-02-03T23:58:22.312Z,92.20
